createdAt,value
2024-02-08T00:01:26.145Z,1.33
2024-02-08T00:03:57.033Z,6.63
2024-02-08T00:06:32.252Z,3.58
2024-02-08T00:09:07.649Z,1.10
2024-02-08T00:11:38.466Z,2.20
2024-02-08T00:14:09.280Z,1.10
2024-02-08T00:16:40.612Z,0.93
2024-02-08T00:19:11.369Z,3.00
2024-02-08T00:21:42.201Z,2.65
2024-02-08T00:24:15.598Z,2.53
2024-02-08T00:26:46.299Z,0.40
2024-02-08T00:29:17.421Z,0.80
2024-02-08T00:31:50.377Z,2.83
2024-02-08T00:34:21.184Z,3.25
2024-02-08T00:36:52.642Z,0.40
2024-02-08T00:39:23.321Z,5.25
2024-02-08T00:41:59.368Z,0.90
2024-02-08T00:44:30.215Z,1.20
2024-02-08T00:47:01.042Z,2.40
2024-02-08T00:49:31.879Z,0.28
2024-02-08T00:52:02.635Z,2.42
2024-02-08T00:54:36.573Z,2.15
2024-02-08T00:57:09.494Z,4.22
2024-02-08T00:59:41.290Z,0.80
2024-02-08T01:02:12.591Z,0.47
2024-02-08T01:04:50.657Z,1.08
2024-02-08T01:07:21.638Z,0.60
2024-02-08T01:09:54.950Z,0.20
2024-02-08T01:12:25.648Z,0.30
2024-02-08T01:14:56.569Z,3.00
2024-02-08T01:17:29.169Z,4.50
2024-02-08T01:20:03.047Z,3.40
2024-02-08T01:22:55.553Z,1.27
2024-02-08T01:25:43.174Z,3.70
2024-02-08T01:28:29.001Z,2.25
2024-02-08T01:31:00.221Z,0.90
2024-02-08T01:33:31.028Z,6.75
2024-02-08T01:36:02.010Z,1.30
2024-02-08T01:38:32.674Z,1.58
2024-02-08T01:41:07.730Z,0.85
2024-02-08T01:46:10.450Z,1.67
2024-02-08T01:48:46.620Z,2.40
2024-02-08T01:51:17.685Z,4.40
2024-02-08T01:53:49.400Z,1.80
2024-02-08T01:56:22.922Z,2.63
2024-02-08T01:58:53.725Z,2.58
2024-02-08T02:01:27.521Z,3.42
2024-02-08T02:03:58.425Z,2.75
2024-02-08T02:06:29.268Z,0.60
2024-02-08T02:09:01.778Z,1.00
2024-02-08T02:11:42.941Z,6.00
2024-02-08T02:14:16.721Z,1.05
2024-02-08T02:16:47.974Z,1.85
2024-02-08T02:19:18.789Z,1.50
2024-02-08T02:21:52.153Z,5.00
2024-02-08T02:24:26.123Z,7.25
2024-02-08T02:26:59.065Z,1.85
2024-02-08T02:29:30.104Z,5.53
2024-02-08T02:32:01.642Z,3.33
2024-02-08T02:34:32.794Z,5.35
2024-02-08T02:37:06.293Z,1.73
2024-02-08T02:39:38.072Z,2.65
2024-02-08T02:42:10.464Z,3.53
2024-02-08T02:44:41.242Z,3.70
2024-02-08T02:47:12.080Z,1.67
2024-02-08T02:49:43.016Z,2.70
2024-02-08T02:52:16.472Z,2.05
2024-02-08T02:54:47.299Z,5.25
2024-02-08T02:57:19.956Z,8.02
2024-02-08T02:59:50.692Z,4.57
2024-02-08T03:02:29.952Z,3.53
2024-02-08T03:05:00.888Z,3.70
2024-02-08T03:07:34.423Z,5.15
2024-02-08T03:10:05.366Z,2.33
2024-02-08T03:12:36.093Z,1.23
2024-02-08T03:15:10.442Z,2.20
2024-02-08T03:17:42.975Z,4.03
2024-02-08T03:20:18.799Z,4.05
2024-02-08T03:22:52.961Z,1.23
2024-02-08T03:25:23.790Z,1.27
2024-02-08T03:27:55.582Z,5.50
2024-02-08T03:30:32.557Z,1.27
2024-02-08T03:33:07.133Z,7.03
2024-02-08T03:35:39.490Z,6.35
2024-02-08T03:38:16.626Z,1.50
2024-02-08T03:40:47.564Z,1.48
2024-02-08T03:43:18.404Z,1.63
2024-02-08T03:45:49.084Z,4.72
2024-02-08T03:48:21.339Z,10.75
2024-02-08T03:50:53.023Z,5.10
2024-02-08T03:53:26.337Z,1.20
2024-02-08T03:55:57.552Z,2.58
2024-02-08T03:58:28.346Z,2.22
2024-02-08T04:01:01.628Z,1.27
2024-02-08T04:03:55.302Z,3.80
2024-02-08T04:06:50.971Z,1.40
2024-02-08T04:09:37.361Z,0.57
2024-02-08T04:12:21.161Z,2.67
2024-02-08T04:15:04.338Z,0.98
2024-02-08T04:17:47.473Z,3.95
2024-02-08T04:20:30.629Z,1.40
2024-02-08T04:23:19.694Z,3.17
2024-02-08T04:26:05.498Z,2.03
2024-02-08T04:28:48.690Z,1.65
2024-02-08T04:31:31.929Z,1.85
2024-02-08T04:34:15.240Z,1.17
2024-02-08T04:36:58.433Z,7.60
2024-02-08T04:39:44.376Z,7.22
2024-02-08T04:42:30.077Z,3.55
2024-02-08T04:45:13.239Z,1.55
2024-02-08T04:47:56.348Z,2.58
2024-02-08T04:50:39.623Z,2.20
2024-02-08T04:53:22.803Z,4.13
2024-02-08T04:55:53.627Z,1.42
2024-02-08T04:58:48.261Z,3.05
2024-02-08T05:03:49.529Z,1.10
2024-02-08T05:06:20.928Z,0.65
2024-02-08T05:08:58.735Z,1.02
2024-02-08T05:11:30.629Z,2.72
2024-02-08T05:14:04.331Z,1.80
2024-02-08T05:16:38.440Z,2.72
2024-02-08T05:19:11.208Z,2.63
2024-02-08T05:21:43.017Z,7.30
2024-02-08T05:24:15.442Z,0.80
2024-02-08T05:26:46.360Z,1.98
2024-02-08T05:29:22.164Z,4.13
2024-02-08T05:31:53.361Z,3.63
2024-02-08T05:34:27.433Z,2.63
2024-02-08T05:37:02.675Z,1.60
2024-02-08T05:39:33.437Z,1.42
2024-02-08T05:42:04.114Z,3.40
2024-02-08T05:44:41.989Z,3.63
2024-02-08T05:47:16.481Z,2.83
2024-02-08T05:49:51.363Z,7.55
2024-02-08T05:52:22.529Z,2.17
2024-02-08T05:54:54.062Z,3.13
2024-02-08T05:57:25.955Z,1.33
2024-02-08T06:00:02.319Z,3.38
2024-02-08T06:02:42.676Z,5.97
2024-02-08T06:05:19.492Z,1.85
2024-02-08T06:07:58.579Z,5.18
2024-02-08T06:10:43.566Z,2.15
2024-02-08T06:13:18.439Z,2.72
2024-02-08T06:15:54.838Z,2.95
2024-02-08T06:18:32.121Z,2.78
2024-02-08T06:21:14.534Z,4.70
2024-02-08T06:23:49.384Z,3.00
2024-02-08T06:26:30.747Z,5.80
2024-02-08T06:29:07.373Z,2.38
2024-02-08T06:31:42.704Z,1.67
2024-02-08T06:34:28.951Z,2.30
2024-02-08T06:37:18.467Z,1.55
2024-02-08T06:39:57.749Z,1.00
2024-02-08T06:42:42.884Z,5.82
2024-02-08T06:45:48.982Z,2.55
2024-02-08T06:48:50.221Z,3.17
2024-02-08T06:51:33.840Z,2.95
2024-02-08T06:54:16.993Z,7.60
2024-02-08T06:57:00.284Z,2.80
2024-02-08T06:59:43.467Z,9.98
2024-02-08T07:02:26.574Z,3.20
2024-02-08T07:05:13.474Z,9.00
2024-02-08T07:07:57.143Z,7.00
2024-02-08T07:10:43.987Z,6.45
2024-02-08T07:13:27.345Z,3.55
2024-02-08T07:16:10.515Z,6.40
2024-02-08T07:19:02.828Z,5.25
2024-02-08T07:21:52.734Z,5.18
2024-02-08T07:24:35.889Z,6.82
2024-02-08T07:27:19.182Z,3.65
2024-02-08T07:30:02.307Z,3.33
2024-02-08T07:32:47.940Z,7.35
2024-02-08T07:35:31.188Z,6.88
2024-02-08T07:38:09.238Z,5.95
2024-02-08T07:40:40.216Z,6.13
2024-02-08T07:43:36.670Z,2.92
2024-02-08T07:46:18.312Z,4.57
2024-02-08T07:48:49.220Z,6.90
2024-02-08T07:51:27.422Z,3.17
2024-02-08T07:54:11.973Z,3.55
2024-02-08T07:56:48.225Z,2.80
2024-02-08T07:59:28.351Z,7.35
2024-02-08T08:02:01.867Z,5.43
2024-02-08T08:04:46.775Z,3.72
2024-02-08T08:07:24.589Z,6.65
2024-02-08T08:10:09.343Z,3.15
2024-02-08T08:12:43.172Z,4.18
2024-02-08T08:15:18.343Z,7.47
2024-02-08T08:20:45.568Z,5.88
2024-02-08T08:23:27.517Z,5.05
2024-02-08T08:26:01.984Z,7.25
2024-02-08T08:28:53.813Z,5.88
2024-02-08T08:31:39.521Z,10.85
2024-02-08T08:34:34.740Z,3.20
2024-02-08T08:37:28.522Z,3.47
2024-02-08T08:40:17.803Z,4.68
2024-02-08T08:42:52.130Z,1.35
2024-02-08T08:45:22.994Z,4.82
2024-02-08T08:48:02.493Z,2.42
2024-02-08T08:50:34.304Z,3.65
2024-02-08T08:53:08.986Z,7.32
2024-02-08T08:55:49.594Z,7.85
2024-02-08T08:58:29.519Z,3.35
2024-02-08T09:01:13.599Z,3.20
2024-02-08T09:03:45.781Z,6.30
2024-02-08T09:06:18.403Z,2.88
2024-02-08T09:08:56.581Z,1.80
2024-02-08T09:11:28.263Z,3.65
2024-02-08T09:14:11.787Z,6.93
2024-02-08T09:16:53.708Z,6.78
2024-02-08T09:19:29.309Z,4.05
2024-02-08T09:22:04.491Z,5.80
2024-02-08T09:24:43.746Z,4.72
2024-02-08T09:27:21.160Z,1.55
2024-02-08T09:29:58.248Z,6.75
2024-02-08T09:32:41.521Z,6.95
2024-02-08T09:35:17.970Z,8.75
2024-02-08T09:37:49.877Z,3.83
2024-02-08T09:40:38.311Z,5.60
2024-02-08T09:43:18.895Z,7.72
2024-02-08T09:46:07.394Z,8.40
2024-02-08T09:48:49.114Z,10.23
2024-02-08T09:51:27.238Z,10.13
2024-02-08T09:54:16.702Z,6.22
2024-02-08T09:56:56.268Z,7.25
2024-02-08T09:59:57.938Z,5.70
2024-02-08T10:02:38.586Z,7.95
2024-02-08T10:05:43.158Z,2.78
2024-02-08T10:08:13.098Z,4.43
2024-02-08T10:11:01.381Z,10.15
2024-02-08T10:13:53.671Z,8.65
2024-02-08T10:16:32.297Z,3.92
2024-02-08T10:19:05.222Z,3.17
2024-02-08T10:21:37.917Z,2.75
2024-02-08T10:24:17.082Z,6.13
2024-02-08T10:26:49.572Z,5.80
2024-02-08T10:29:26.634Z,3.13
2024-02-08T10:32:01.665Z,6.45
2024-02-08T10:34:41.949Z,4.55
2024-02-08T10:37:36.415Z,4.90
2024-02-08T10:40:29.274Z,6.97
2024-02-08T10:43:01.556Z,2.53
2024-02-08T10:45:45.690Z,3.83
2024-02-08T10:48:18.278Z,4.07
2024-02-08T10:50:52.966Z,4.95
2024-02-08T10:53:37.582Z,0.80
2024-02-08T10:56:15.990Z,3.33
2024-02-08T10:59:11.301Z,4.28
2024-02-08T11:02:00.655Z,6.10
2024-02-08T11:04:42.538Z,1.98
2024-02-08T11:07:25.026Z,3.60
2024-02-08T11:09:55.781Z,2.75
2024-02-08T11:12:31.669Z,3.25
2024-02-08T11:15:15.058Z,2.15
2024-02-08T11:17:51.501Z,5.05
2024-02-08T11:20:35.009Z,7.10
2024-02-08T11:23:20.066Z,3.97
2024-02-08T11:25:53.402Z,5.22
2024-02-08T11:28:46.089Z,3.35
2024-02-08T11:31:18.126Z,5.32
2024-02-08T11:33:51.194Z,14.55
2024-02-08T11:36:25.104Z,2.30
2024-02-08T11:38:59.839Z,8.25
2024-02-08T11:44:07.510Z,1.27
2024-02-08T11:46:40.061Z,3.53
2024-02-08T11:49:17.071Z,6.50
2024-02-08T11:51:50.526Z,4.00
2024-02-08T11:54:30.758Z,2.05
2024-02-08T11:57:07.949Z,1.20
2024-02-08T11:59:46.895Z,6.38
2024-02-08T12:02:20.336Z,4.78
2024-02-08T12:04:54.681Z,6.68
2024-02-08T12:10:28.670Z,7.78
2024-02-08T12:13:01.454Z,3.50
2024-02-08T12:15:35.832Z,3.67
2024-02-08T12:18:08.569Z,2.90
2024-02-08T12:20:39.391Z,4.00
2024-02-08T12:23:10.168Z,5.75
2024-02-08T12:25:44.488Z,2.47
2024-02-08T12:28:16.797Z,5.35
2024-02-08T12:30:47.621Z,3.70
2024-02-08T12:33:20.789Z,6.05
2024-02-08T12:35:52.319Z,3.92
2024-02-08T12:38:25.268Z,10.90
2024-02-08T12:41:02.723Z,4.55
2024-02-08T12:43:35.501Z,5.25
2024-02-08T12:46:07.535Z,5.10
2024-02-08T12:48:39.031Z,3.67
2024-02-08T12:51:15.070Z,25.55
2024-02-08T12:53:46.377Z,5.63
2024-02-08T12:56:23.626Z,2.53
2024-02-08T12:59:03.782Z,8.27
2024-02-08T13:01:40.710Z,1.88
2024-02-08T13:04:11.838Z,5.72
2024-02-08T13:06:43.337Z,2.92
2024-02-08T13:09:27.962Z,12.60
2024-02-08T13:12:20.848Z,6.30
2024-02-08T13:15:04.338Z,3.42
2024-02-08T13:17:37.171Z,5.65
2024-02-08T13:20:15.911Z,6.35
2024-02-08T13:22:49.192Z,12.70
2024-02-08T13:25:20.118Z,3.42
2024-02-08T13:27:54.129Z,6.20
2024-02-08T13:30:25.123Z,8.45
2024-02-08T13:32:57.334Z,2.13
2024-02-08T13:35:30.320Z,3.58
2024-02-08T13:38:02.614Z,4.75
2024-02-08T13:40:33.577Z,7.15
2024-02-08T13:43:07.407Z,5.70
2024-02-08T13:45:38.217Z,1.73
2024-02-08T13:48:14.481Z,4.32
2024-02-08T13:50:48.402Z,8.02
2024-02-08T13:53:19.296Z,2.03
2024-02-08T13:55:56.005Z,4.10
2024-02-08T13:58:32.103Z,3.55
2024-02-08T14:01:03.395Z,5.60
2024-02-08T14:03:36.436Z,5.97
2024-02-08T14:06:11.424Z,7.57
2024-02-08T14:08:48.536Z,6.47
2024-02-08T14:11:21.512Z,4.95
2024-02-08T14:13:55.396Z,5.13
2024-02-08T14:16:27.195Z,6.45
2024-02-08T14:19:01.058Z,5.07
2024-02-08T14:21:34.799Z,2.78
2024-02-08T14:24:12.962Z,11.10
2024-02-08T14:26:44.990Z,2.88
2024-02-08T14:29:18.479Z,10.68
2024-02-08T14:31:49.378Z,7.63
2024-02-08T14:34:26.807Z,5.60
2024-02-08T14:37:00.777Z,5.40
2024-02-08T14:39:34.329Z,3.30
2024-02-08T14:42:12.345Z,2.38
2024-02-08T14:44:46.685Z,3.00
2024-02-08T14:47:23.712Z,7.53
2024-02-08T14:50:17.419Z,4.78
2024-02-08T14:52:51.081Z,6.57
2024-02-08T14:55:27.366Z,8.48
2024-02-08T14:58:01.162Z,2.42
2024-02-08T15:00:47.455Z,3.70
2024-02-08T15:03:29.599Z,5.15
2024-02-08T15:06:06.903Z,5.35
2024-02-08T15:08:47.908Z,8.88
2024-02-08T15:11:48.310Z,3.47
2024-02-08T15:14:29.809Z,8.15
2024-02-08T15:19:46.967Z,8.25
2024-02-08T15:22:33.806Z,5.60
2024-02-08T15:25:06.009Z,6.07
2024-02-08T15:27:54.335Z,8.23
2024-02-08T15:30:37.913Z,7.47
2024-02-08T15:33:30.704Z,7.53
2024-02-08T15:36:01.230Z,9.77
2024-02-08T15:39:01.082Z,13.15
2024-02-08T15:41:50.069Z,5.95
2024-02-08T15:44:35.814Z,7.28
2024-02-08T15:47:14.104Z,3.80
2024-02-08T15:49:48.066Z,4.20
2024-02-08T15:52:23.861Z,4.45
2024-02-08T15:54:56.783Z,10.75
2024-02-08T15:57:31.299Z,5.93
2024-02-08T16:00:02.600Z,12.77
2024-02-08T16:02:37.373Z,6.65
2024-02-08T16:05:16.387Z,5.90
2024-02-08T16:07:44.913Z,12.90
2024-02-08T16:10:26.250Z,8.15
2024-02-08T16:13:06.883Z,5.15
2024-02-08T16:15:51.333Z,6.82
2024-02-08T16:18:28.079Z,6.57
2024-02-08T16:21:06.867Z,7.18
2024-02-08T16:23:48.645Z,7.47
2024-02-08T16:26:20.335Z,5.13
2024-02-08T16:28:52.346Z,6.22
2024-02-08T16:31:33.272Z,15.68
2024-02-08T16:34:11.720Z,3.90
2024-02-08T16:36:51.314Z,7.32
2024-02-08T16:39:56.139Z,10.88
2024-02-08T16:42:36.372Z,6.90
2024-02-08T16:45:19.389Z,11.50
2024-02-08T16:48:10.114Z,17.38
2024-02-08T16:50:47.137Z,15.75
2024-02-08T16:53:23.803Z,14.07
2024-02-08T16:56:00.196Z,12.85
2024-02-08T16:58:40.103Z,7.03
2024-02-08T17:01:23.915Z,12.55
2024-02-08T17:04:18.605Z,11.00
2024-02-08T17:07:04.855Z,7.53
2024-02-08T17:09:45.601Z,6.20
2024-02-08T17:12:28.847Z,4.93
2024-02-08T17:15:21.386Z,4.90
2024-02-08T17:18:07.748Z,6.90
2024-02-08T17:20:44.492Z,6.45
2024-02-08T17:23:29.920Z,6.45
2024-02-08T17:26:08.553Z,5.32
2024-02-08T17:28:51.734Z,10.48
2024-02-08T17:31:30.529Z,6.68
2024-02-08T17:34:11.912Z,4.25
2024-02-08T17:36:48.367Z,6.72
2024-02-08T17:39:26.553Z,10.10
2024-02-08T17:42:09.987Z,12.90
2024-02-08T17:44:51.033Z,9.00
2024-02-08T17:47:30.314Z,5.93
2024-02-08T17:50:06.531Z,10.18
2024-02-08T17:52:39.943Z,5.82
2024-02-08T17:55:17.187Z,6.20
2024-02-08T17:57:57.911Z,3.25
2024-02-08T18:00:33.618Z,6.50
2024-02-08T18:03:08.897Z,7.85
2024-02-08T18:05:41.522Z,7.85
2024-02-08T18:08:15.541Z,5.35
2024-02-08T18:10:49.442Z,5.07
2024-02-08T18:13:28.169Z,4.35
2024-02-08T18:18:46.614Z,5.53
2024-02-08T18:21:20.981Z,6.57
2024-02-08T18:23:54.884Z,5.82
2024-02-08T18:26:33.535Z,7.40
2024-02-08T18:29:09.655Z,5.82
2024-02-08T18:31:43.818Z,6.13
2024-02-08T18:34:17.322Z,4.60
2024-02-08T18:36:50.879Z,7.13
2024-02-08T18:42:56.545Z,3.53
2024-02-08T18:45:29.827Z,7.93
2024-02-08T18:48:02.418Z,4.90
2024-02-08T18:50:34.829Z,8.20
2024-02-08T18:53:06.532Z,10.13
2024-02-08T18:55:41.114Z,5.70
2024-02-08T18:58:14.511Z,6.03
2024-02-08T19:00:51.201Z,10.55
2024-02-08T19:03:22.966Z,10.40
2024-02-08T19:05:56.344Z,8.18
2024-02-08T19:08:27.857Z,6.80
2024-02-08T19:10:59.899Z,11.15
2024-02-08T19:13:32.920Z,8.32
2024-02-08T19:16:13.609Z,12.98
2024-02-08T19:18:52.152Z,7.30
2024-02-08T19:21:27.807Z,7.63
2024-02-08T19:24:01.132Z,15.30
2024-02-08T19:26:34.161Z,9.60
2024-02-08T19:29:08.184Z,5.72
2024-02-08T19:31:47.569Z,9.18
2024-02-08T19:34:22.779Z,9.10
2024-02-08T19:36:59.911Z,12.65
2024-02-08T19:39:43.011Z,12.20
2024-02-08T19:42:23.484Z,6.07
2024-02-08T19:45:01.862Z,7.43
2024-02-08T19:47:39.297Z,10.52
2024-02-08T19:50:17.945Z,9.18
2024-02-08T19:52:49.176Z,8.65
2024-02-08T19:55:30.821Z,9.13
2024-02-08T19:58:02.486Z,12.38
2024-02-08T20:00:33.246Z,8.80
2024-02-08T20:03:17.703Z,10.40
2024-02-08T20:05:49.119Z,9.70
2024-02-08T20:08:22.132Z,16.10
2024-02-08T20:10:53.011Z,11.32
2024-02-08T20:13:26.193Z,12.77
2024-02-08T20:15:58.262Z,9.57
2024-02-08T20:18:31.734Z,9.60
2024-02-08T20:21:05.442Z,14.15
2024-02-08T20:23:41.042Z,11.27
2024-02-08T20:26:13.480Z,10.73
2024-02-08T20:28:45.604Z,9.90
2024-02-08T20:31:18.870Z,9.20
2024-02-08T20:33:52.430Z,12.10
2024-02-08T20:36:23.306Z,15.95
2024-02-08T20:38:55.667Z,17.83
2024-02-08T20:41:27.388Z,18.25
2024-02-08T20:44:08.712Z,13.90
2024-02-08T20:46:42.459Z,15.75
2024-02-08T20:49:17.477Z,13.45
2024-02-08T20:51:52.336Z,10.43
2024-02-08T20:54:23.172Z,12.90
2024-02-08T20:56:54.381Z,14.93
2024-02-08T20:59:29.155Z,13.52
2024-02-08T21:02:04.075Z,12.38
2024-02-08T21:04:38.962Z,12.23
2024-02-08T21:07:10.128Z,16.80
2024-02-08T21:09:40.931Z,11.95
2024-02-08T21:12:11.833Z,18.92
2024-02-08T21:14:44.133Z,15.77
2024-02-08T21:17:16.727Z,12.57
2024-02-08T21:19:52.615Z,18.00
2024-02-08T21:22:24.045Z,9.93
2024-02-08T21:24:54.827Z,14.00
2024-02-08T21:27:27.979Z,17.98
2024-02-08T21:29:59.492Z,12.90
2024-02-08T21:32:30.247Z,12.25
2024-02-08T21:35:07.198Z,15.45
2024-02-08T21:37:38.045Z,13.85
2024-02-08T21:40:10.245Z,12.52
2024-02-08T21:42:40.999Z,10.13
2024-02-08T21:45:14.407Z,11.98
2024-02-08T21:47:45.487Z,13.77
2024-02-08T21:50:18.914Z,13.90
2024-02-08T21:52:49.636Z,16.20
2024-02-08T21:55:20.452Z,9.95
2024-02-08T21:57:51.921Z,15.50
2024-02-08T22:00:24.238Z,10.93
2024-02-08T22:02:58.314Z,9.93
2024-02-08T22:05:31.774Z,8.52
2024-02-08T22:08:02.653Z,11.32
2024-02-08T22:10:35.860Z,14.95
2024-02-08T22:13:09.433Z,11.15
2024-02-08T22:15:40.919Z,9.02
2024-02-08T22:18:12.752Z,11.60
2024-02-08T22:20:46.267Z,13.75
2024-02-08T22:23:17.101Z,19.83
2024-02-08T22:25:47.939Z,11.02
2024-02-08T22:28:18.925Z,17.60
2024-02-08T22:30:50.737Z,12.70
2024-02-08T22:33:22.719Z,13.02
2024-02-08T22:35:56.530Z,12.25
2024-02-08T22:38:27.306Z,15.20
2024-02-08T22:40:59.675Z,7.85
2024-02-08T22:43:30.639Z,12.05
2024-02-08T22:46:01.425Z,14.10
2024-02-08T22:48:32.205Z,9.02
2024-02-08T22:51:07.629Z,11.07
2024-02-08T22:53:40.196Z,9.85
2024-02-08T22:56:12.127Z,9.57
2024-02-08T22:58:43.018Z,11.68
2024-02-08T23:01:28.621Z,10.63
2024-02-08T23:03:59.594Z,15.13
2024-02-08T23:06:36.507Z,14.68
2024-02-08T23:09:09.653Z,11.90
2024-02-08T23:11:44.588Z,10.18
2024-02-08T23:14:20.050Z,12.20
2024-02-08T23:16:52.984Z,11.02
2024-02-08T23:19:25.086Z,7.45
2024-02-08T23:22:18.153Z,8.07
2024-02-08T23:25:03.476Z,10.20
2024-02-08T23:27:34.631Z,11.70
2024-02-08T23:30:07.447Z,9.13
2024-02-08T23:32:40.033Z,11.30
2024-02-08T23:35:13.883Z,7.22
2024-02-08T23:37:48.593Z,6.95
2024-02-08T23:40:19.714Z,6.43
2024-02-08T23:42:50.650Z,6.53
2024-02-08T23:45:21.442Z,8.15
2024-02-08T23:47:55.676Z,8.75
2024-02-08T23:50:27.837Z,7.72
2024-02-08T23:53:02.090Z,12.02
2024-02-08T23:55:39.388Z,4.10
2024-02-08T23:58:12.679Z,4.85
